Time;durP1;ratioP1;P1;durP2;ratioP2;P2;SDS_P1;SDS_P2;PMS_P1;PMS_P2;Temp;Humidity;BMP_temperature;BMP_pressure;BME280_temperature;BME280_humidity;BME280_pressure;Samples;Min_cycle;Max_cycle;Signal;HPM_P1;HPM_P2
2022/08/17 00:01:52;;;;;;;34.13;30.55;;;;;;;21.10;71.67;100896.66;5044271;28;20072;-70
2022/08/17 00:04:18;;;;;;;33.25;29.17;;;;;;;21.08;71.63;100888.81;5045868;28;20088;-70
2022/08/17 00:06:43;;;;;;;32.78;29.15;;;;;;;21.04;71.75;100880.22;5044397;28;20028;-70
2022/08/17 00:09:09;;;;;;;33.22;29.60;;;;;;;21.00;71.87;100880.53;5041297;28;20047;-70
2022/08/17 00:11:37;;;;;;;30.65;27.55;;;;;;;21.04;71.87;100882.84;5054803;28;20112;-70
2022/08/17 00:14:16;;;;;;;35.92;28.83;;;;;;;21.09;71.23;100884.34;5053163;28;20024;-70
2022/08/17 00:16:45;;;;;;;34.72;31.02;;;;;;;21.04;72.50;100876.72;5030688;28;20381;-70
2022/08/17 00:19:13;;;;;;;35.75;32.10;;;;;;;21.04;72.75;100871.41;5044615;28;20029;-70
2022/08/17 00:21:43;;;;;;;35.00;31.27;;;;;;;21.09;72.77;100868.44;5053703;28;20075;-70
2022/08/17 00:24:08;;;;;;;36.17;32.33;;;;;;;21.10;72.90;100860.41;5053490;28;20568;-70
2022/08/17 00:26:34;;;;;;;41.25;36.60;;;;;;;21.08;73.57;100861.44;5040248;28;20129;-70
2022/08/17 00:28:59;;;;;;;37.45;33.53;;;;;;;21.08;73.45;100857.00;5040102;28;20032;-70
2022/08/17 00:31:25;;;;;;;39.35;32.75;;;;;;;21.11;73.43;100867.38;5051088;28;20032;-70
2022/08/17 00:33:50;;;;;;;36.33;32.42;;;;;;;21.12;73.15;100863.78;5053846;28;20086;-70
2022/08/17 00:36:16;;;;;;;38.20;32.00;;;;;;;21.13;73.49;100859.34;5038133;28;20138;-70
2022/08/17 00:38:41;;;;;;;36.80;32.78;;;;;;;21.12;73.91;100858.47;5047314;28;20036;-70
2022/08/17 00:41:19;;;;;;;35.95;32.05;;;;;;;21.15;73.81;100863.56;5048142;28;20030;-70
2022/08/17 00:43:57;;;;;;;36.50;32.78;;;;;;;21.12;74.26;100858.47;5026705;28;20128;-70
2022/08/17 00:46:35;;;;;;;37.88;33.60;;;;;;;21.13;73.36;100852.25;5028567;28;20056;-70
2022/08/17 00:49:01;;;;;;;38.28;34.25;;;;;;;21.13;74.12;100846.94;5045974;28;20032;-70
2022/08/17 00:51:40;;;;;;;40.35;35.53;;;;;;;21.09;73.30;100858.72;5053758;28;20033;-70
2022/08/17 00:54:11;;;;;;;42.67;34.35;;;;;;;21.09;74.11;100853.41;5050046;28;20035;-70
2022/08/17 00:56:45;;;;;;;39.95;35.72;;;;;;;21.07;74.16;100860.59;5050942;28;20106;-70
2022/08/17 00:59:14;;;;;;;36.78;33.00;;;;;;;21.07;74.47;100862.41;5043087;28;20068;-70
2022/08/17 01:01:40;;;;;;;42.63;35.53;;;;;;;21.04;74.30;100851.06;5053965;28;20025;-70
2022/08/17 01:04:06;;;;;;;40.72;34.78;;;;;;;21.08;74.49;100851.69;5052959;28;20112;-70
2022/08/17 01:06:32;;;;;;;39.75;34.33;;;;;;;21.00;75.06;100848.72;5042223;28;20030;-70
2022/08/17 01:08:58;;;;;;;38.58;34.50;;;;;;;21.07;75.00;100854.47;5034871;28;20087;-70
2022/08/17 01:11:26;;;;;;;38.90;34.90;;;;;;;21.07;75.31;100849.16;5052665;28;20090;-70
2022/08/17 01:13:51;;;;;;;39.92;35.65;;;;;;;21.05;74.93;100841.28;5044820;28;20104;-70
2022/08/17 01:16:29;;;;;;;43.30;35.30;;;;;;;21.07;74.88;100847.34;5047448;28;20580;-70
2022/08/17 01:18:59;;;;;;;39.72;35.67;;;;;;;21.10;75.08;100849.81;5031217;28;20099;-70
2022/08/17 01:21:38;;;;;;;39.58;35.30;;;;;;;21.13;74.32;100828.38;5039504;28;20029;-70
2022/08/17 01:24:04;;;;;;;39.83;35.50;;;;;;;21.12;74.74;100837.28;5053041;28;20032;-70
2022/08/17 01:26:31;;;;;;;39.15;35.17;;;;;;;21.14;74.60;100827.44;5049853;28;20461;-70
2022/08/17 01:28:58;;;;;;;38.28;34.38;;;;;;;21.12;74.94;100826.66;5033465;28;20025;-70
2022/08/17 01:31:27;;;;;;;39.75;35.35;;;;;;;21.08;74.75;100825.19;5049346;28;20052;-70
2022/08/17 01:33:52;;;;;;;39.28;35.17;;;;;;;21.11;74.99;100819.69;5053376;28;20025;-70
2022/08/17 01:36:18;;;;;;;39.08;35.08;;;;;;;21.02;74.91;100826.44;5045671;28;20025;-70
2022/08/17 01:38:44;;;;;;;38.33;34.08;;;;;;;21.05;74.99;100826.22;5039058;28;20013;-70
2022/08/17 01:41:13;;;;;;;39.53;34.97;;;;;;;20.98;75.47;100824.97;5052947;28;20068;-70
2022/08/17 01:43:44;;;;;;;38.83;34.78;;;;;;;20.92;75.90;100822.72;5044508;28;20493;-70
2022/08/17 01:46:14;;;;;;;40.22;34.58;;;;;;;20.94;75.71;100815.53;5045709;28;20030;-70
2022/08/17 01:48:41;;;;;;;40.67;35.55;;;;;;;20.94;76.01;100822.63;5045376;28;20025;-70
2022/08/17 01:51:07;;;;;;;41.83;35.72;;;;;;;20.89;76.17;100822.06;5053042;28;20028;-70
2022/08/17 01:53:41;;;;;;;38.97;34.65;;;;;;;20.88;75.73;100820.38;5051871;28;20024;-70
2022/08/17 01:56:16;;;;;;;39.75;35.67;;;;;;;20.84;75.84;100813.59;5049116;28;20036;-70
2022/08/17 01:58:42;;;;;;;38.15;34.20;;;;;;;20.84;76.52;100813.59;5046054;28;20382;-70
2022/08/17 02:01:09;;;;;;;40.65;36.33;;;;;;;20.80;76.38;100818.25;5052480;28;20024;-70
2022/08/17 02:03:36;;;;;;;41.55;34.55;;;;;;;20.76;76.40;100817.63;5047678;28;20159;-70
2022/08/17 02:06:02;;;;;;;38.50;34.40;;;;;;;20.76;76.76;100811.44;5041101;28;20051;-70
2022/08/17 02:08:31;;;;;;;40.38;35.60;;;;;;;20.71;76.88;100810.91;5044123;28;20469;-70
2022/08/17 02:10:56;;;;;;;39.20;35.28;;;;;;;20.66;77.18;100805.06;5052254;28;20465;-70
2022/08/17 02:13:22;;;;;;;37.60;33.72;;;;;;;20.63;77.14;100806.09;5051806;28;20028;-70
2022/08/17 02:15:47;;;;;;;38.95;34.83;;;;;;;20.59;77.52;100809.91;5037031;28;20029;-70
2022/08/17 02:18:14;;;;;;;39.00;34.08;;;;;;;20.51;77.68;100805.13;5039265;28;20415;-70
2022/08/17 02:20:41;;;;;;;39.75;35.38;;;;;;;20.46;77.70;100809.84;5051804;28;20040;-70
2022/08/17 02:23:09;;;;;;;36.92;33.17;;;;;;;20.44;78.21;100808.25;5051646;28;20036;-70
2022/08/17 02:25:35;;;;;;;38.78;34.28;;;;;;;20.40;78.19;100804.09;5052191;28;20071;-70
2022/08/17 02:28:02;;;;;;;37.70;33.63;;;;;;;20.37;78.77;100805.13;5036590;28;20029;-70
2022/08/17 02:30:27;;;;;;;38.75;34.55;;;;;;;20.31;79.17;100801.09;5031126;28;20040;-70
2022/08/17 02:32:53;;;;;;;39.08;33.72;;;;;;;20.23;79.32;100795.44;5040999;28;20017;-70
2022/08/17 02:35:21;;;;;;;37.38;33.50;;;;;;;20.24;79.34;100807.75;5040881;28;20121;-70
2022/08/17 02:37:47;;;;;;;37.65;33.85;;;;;;;20.18;79.33;100800.19;5039321;28;20034;-70
2022/08/17 02:40:12;;;;;;;36.28;32.47;;;;;;;20.20;79.67;100794.78;5052252;28;20025;-70
2022/08/17 02:42:40;;;;;;;37.33;32.70;;;;;;;20.18;80.27;100792.25;5050977;28;20068;-70
2022/08/17 02:45:11;;;;;;;36.28;32.58;;;;;;;20.18;79.74;100786.13;5041729;28;20035;-70
2022/08/17 02:47:37;;;;;;;37.03;32.97;;;;;;;20.13;79.97;100783.75;5040003;28;20618;-70
2022/08/17 02:50:05;;;;;;;34.80;31.23;;;;;;;20.11;80.07;100790.97;5044875;28;20037;-70
2022/08/17 02:52:36;;;;;;;35.83;32.03;;;;;;;20.13;79.47;100801.44;5051385;28;20056;-70
2022/08/17 02:55:04;;;;;;;36.20;32.47;;;;;;;20.08;80.32;100799.94;5038646;28;20021;-70
2022/08/17 02:57:29;;;;;;;39.25;33.95;;;;;;;20.08;80.23;100796.44;5042049;28;20025;-70
2022/08/17 02:59:55;;;;;;;38.55;33.35;;;;;;;20.09;79.99;100784.91;5047401;28;20376;-70
2022/08/17 03:02:20;;;;;;;38.78;34.67;;;;;;;20.05;80.59;100794.84;5050844;28;20037;-70
2022/08/17 03:04:45;;;;;;;39.55;35.42;;;;;;;20.01;81.10;100785.41;5043672;28;20485;-70
2022/08/17 03:07:11;;;;;;;42.90;36.67;;;;;;;19.98;81.41;100790.03;5047458;28;20056;-70
2022/08/17 03:09:36;;;;;;;41.60;36.95;;;;;;;19.97;80.55;100785.69;5041902;28;20385;-70
2022/08/17 03:12:07;;;;;;;43.70;37.97;;;;;;;19.95;80.85;100771.72;5046850;28;20163;-70
2022/08/17 03:14:36;;;;;;;41.42;37.10;;;;;;;19.94;81.06;100781.44;5049579;28;20060;-70
2022/08/17 03:17:02;;;;;;;44.42;38.85;;;;;;;19.89;81.28;100783.53;5051119;28;20048;-70
2022/08/17 03:19:27;;;;;;;42.97;38.53;;;;;;;19.86;81.50;100781.94;5035825;28;20052;-70
2022/08/17 03:21:52;;;;;;;46.80;39.17;;;;;;;19.85;82.16;100782.03;5045244;28;20519;-70
2022/08/17 03:24:18;;;;;;;45.10;40.38;;;;;;;19.80;82.09;100782.31;5023852;28;20029;-70
2022/08/17 03:26:43;;;;;;;45.95;40.92;;;;;;;19.80;82.26;100782.31;5038646;28;20551;-70
2022/08/17 03:29:08;;;;;;;46.42;40.40;;;;;;;19.75;82.31;100781.75;5036324;28;20036;-70
2022/08/17 03:31:34;;;;;;;47.38;41.53;;;;;;;19.74;82.71;100782.69;5050486;28;20064;-70
2022/08/17 03:33:59;;;;;;;52.17;41.30;;;;;;;19.66;82.66;100773.56;5045612;28;20385;-70
2022/08/17 03:36:25;;;;;;;43.67;39.08;;;;;;;19.70;82.57;100786.47;5050714;28;20025;-70
2022/08/17 03:38:50;;;;;;;44.80;39.88;;;;;;;19.70;82.82;100786.47;5034527;28;20041;-70
2022/08/17 03:41:15;;;;;;;45.90;39.78;;;;;;;19.67;82.97;100786.66;5049649;28;20032;-70
2022/08/17 03:43:41;;;;;;;43.97;39.30;;;;;;;19.67;82.93;100781.38;5038455;28;20133;-70
2022/08/17 03:57:11;;;;;;;47.20;41.95;;;;;;;19.78;83.12;100794.81;5045752;28;20096;-70
2022/08/17 03:59:37;;;;;;;48.10;40.35;;;;;;;19.80;83.37;100800.81;5050022;28;20116;-70
2022/08/17 04:02:08;;;;;;;47.00;40.33;;;;;;;19.78;82.97;100800.09;5051173;28;20028;-70
2022/08/17 04:04:34;;;;;;;46.55;41.47;;;;;;;19.77;83.29;100806.31;5037387;28;20232;-70
2022/08/17 04:07:00;;;;;;;45.17;40.47;;;;;;;19.79;83.56;100812.38;5035563;28;20473;-70
2022/08/17 04:09:25;;;;;;;49.50;42.50;;;;;;;19.80;82.98;100819.34;5044820;28;20025;-70
2022/08/17 04:11:50;;;;;;;44.33;39.80;;;;;;;19.82;82.79;100829.84;5051073;28;20116;-70
2022/08/17 04:14:16;;;;;;;42.55;37.95;;;;;;;19.81;83.16;100839.53;5041339;28;20075;-70
2022/08/17 04:16:41;;;;;;;43.90;39.03;;;;;;;19.84;83.08;100852.59;5044521;28;20017;-70
2022/08/17 04:19:06;;;;;;;48.10;39.28;;;;;;;19.77;84.22;100856.56;5050699;28;20028;-70
2022/08/17 04:21:33;;;;;;;49.58;43.92;;;;;;;19.72;85.23;100850.72;5049970;28;20440;-70
2022/08/17 04:23:59;;;;;;;48.70;42.85;;;;;;;19.63;85.35;100825.69;5045029;28;20049;-70
2022/08/17 04:26:24;;;;;;;47.90;42.75;;;;;;;19.75;85.33;100847.91;5049369;28;20064;-70
2022/08/17 04:28:50;;;;;;;48.90;43.42;;;;;;;19.74;85.57;100848.81;5050462;28;20028;-70
2022/08/17 04:31:16;;;;;;;49.08;40.58;;;;;;;19.72;85.20;100852.50;5044371;28;20029;-70
2022/08/17 04:33:44;;;;;;;49.97;42.17;;;;;;;19.68;86.18;100867.69;5044565;28;20129;-70
2022/08/17 04:36:14;;;;;;;45.72;40.78;;;;;;;19.59;86.74;100890.25;5050749;28;20078;-70
2022/08/17 04:38:41;;;;;;;49.00;41.10;;;;;;;19.59;86.66;100894.69;5051501;28;20055;-70
2022/08/17 04:43:57;;;;;;;49.97;42.63;;;;;;;19.62;87.18;100902.44;5048520;28;20782;-70
2022/08/17 04:46:31;;;;;;;49.20;41.63;;;;;;;19.62;87.12;100881.28;5052593;28;20051;-70
2022/08/17 04:48:57;;;;;;;51.10;44.30;;;;;;;19.49;87.90;100883.81;5053773;28;20447;-69
2022/08/17 04:51:32;;;;;;;45.85;41.05;;;;;;;19.56;87.45;100884.31;5053624;28;20032;-70
2022/08/17 04:54:04;;;;;;;47.53;42.47;;;;;;;19.57;87.98;100894.78;5048032;28;20030;-69
2022/08/17 04:56:30;;;;;;;44.95;40.10;;;;;;;19.54;88.20;100905.53;5047301;28;20032;-70
2022/08/17 04:59:05;;;;;;;47.70;41.72;;;;;;;19.54;88.23;100878.25;5052373;28;20031;-70
2022/08/17 05:01:33;;;;;;;49.90;43.22;;;;;;;19.53;88.47;100880.03;5047207;28;20021;-70
2022/08/17 05:04:01;;;;;;;48.50;43.30;;;;;;;19.53;89.04;100879.19;5039049;28;20108;-69
2022/08/17 05:06:28;;;;;;;45.97;40.97;;;;;;;19.62;88.50;100873.34;5046662;28;20056;-70
2022/08/17 05:08:54;;;;;;;47.97;41.83;;;;;;;19.64;88.54;100869.69;5052945;28;20024;-69
2022/08/17 05:11:21;;;;;;;44.55;39.85;;;;;;;19.69;88.23;100863.28;5052994;28;20801;-70
2022/08/17 05:13:48;;;;;;;48.33;40.28;;;;;;;19.72;88.52;100863.94;5050267;28;20440;-70
2022/08/17 05:16:14;;;;;;;45.78;40.03;;;;;;;19.75;88.47;100866.41;5043152;28;20025;-70
2022/08/17 05:18:40;;;;;;;46.03;40.13;;;;;;;19.77;88.38;100877.72;5053125;28;20380;-70
2022/08/17 05:21:06;;;;;;;46.05;40.08;;;;;;;19.79;88.67;100878.50;5053674;28;20029;-70
2022/08/17 05:23:31;;;;;;;43.15;37.13;;;;;;;19.87;88.17;100878.84;5048322;28;20096;-70
2022/08/17 05:25:57;;;;;;;48.30;38.55;;;;;;;19.98;87.78;100874.69;5035503;28;20051;-70
2022/08/17 05:28:26;;;;;;;42.60;37.53;;;;;;;20.04;87.84;100869.88;5042037;28;20021;-70
2022/08/17 05:30:53;;;;;;;46.70;37.58;;;;;;;20.11;87.65;100865.06;5050998;28;20028;-70
2022/08/17 05:33:22;;;;;;;43.38;38.63;;;;;;;20.14;87.93;100858.72;5046172;28;20090;-70
2022/08/17 05:35:50;;;;;;;41.13;36.60;;;;;;;20.24;86.62;100868.63;5037997;28;20108;-70
2022/08/17 05:38:18;;;;;;;42.33;37.83;;;;;;;20.31;86.42;100866.44;5052037;28;20155;-70
2022/08/17 05:40:43;;;;;;;41.38;37.08;;;;;;;20.38;85.46;100856.31;5053377;28;20068;-70
2022/08/17 05:43:21;;;;;;;40.80;36.53;;;;;;;20.46;85.49;100865.44;5046269;28;20180;-69
2022/08/17 05:46:05;;;;;;;39.25;35.03;;;;;;;20.56;85.24;100861.28;5044698;28;20389;-70
2022/08/17 05:48:34;;;;;;;;;;;;;;;20.71;83.97;100864.75;5052351;28;20431;-70
2022/08/17 05:51:06;;;;;;;37.90;33.03;;;;;;;20.79;84.24;100870.38;5052629;28;19912;-70
2022/08/17 05:53:44;;;;;;;38.47;34.33;;;;;;;20.83;82.82;100862.22;5047649;28;20022;-70
2022/08/17 05:56:35;;;;;;;37.25;33.25;;;;;;;20.99;82.37;100871.72;5032038;28;20115;-70
2022/08/17 05:59:19;;;;;;;38.30;33.15;;;;;;;21.08;82.81;100872.06;5033743;28;20090;-70
2022/08/17 06:02:14;;;;;;;37.03;33.08;;;;;;;21.11;81.76;100877.16;5039359;28;20037;-70
2022/08/17 06:05:13;;;;;;;37.67;30.95;;;;;;;21.21;81.34;100880.88;5039611;28;20036;-70
2022/08/17 06:07:48;;;;;;;33.80;28.83;;;;;;;21.24;80.55;100878.03;5029904;28;20036;-70
2022/08/17 06:10:19;;;;;;;35.10;29.67;;;;;;;21.27;80.50;100888.41;5042842;28;20025;-70
2022/08/17 06:13:24;;;;;;;31.75;27.77;;;;;;;21.31;80.26;100875.81;5052016;28;20488;-70
2022/08/17 06:15:58;;;;;;;32.85;27.55;;;;;;;21.35;80.39;100878.16;4998819;28;20123;-70
2022/08/17 06:18:27;;;;;;;33.22;28.45;;;;;;;21.35;79.88;100869.34;5048357;28;20017;-70
2022/08/17 06:20:57;;;;;;;30.90;27.80;;;;;;;21.34;79.97;100883.56;5041480;28;20040;-70
2022/08/17 06:23:38;;;;;;;38.88;27.67;;;;;;;21.31;80.11;100889.06;5048389;28;20033;-70
2022/08/17 06:26:16;;;;;;;30.75;27.40;;;;;;;21.33;79.93;100893.31;5038335;28;20028;-70
2022/08/17 06:29:01;;;;;;;31.42;27.50;;;;;;;21.33;80.23;100895.13;5038549;28;20026;-70
2022/08/17 06:31:33;;;;;;;32.03;27.63;;;;;;;21.32;79.94;100904.88;5021904;28;20070;-70
2022/08/17 06:34:01;;;;;;;29.33;26.17;;;;;;;21.30;80.45;100912.06;5031404;28;20033;-70
2022/08/17 06:36:48;;;;;;;33.28;27.33;;;;;;;21.31;79.92;100910.28;5031682;28;20033;-70
2022/08/17 06:39:46;;;;;;;29.92;26.70;;;;;;;21.24;79.83;100904.53;5033245;28;20043;-70
2022/08/17 06:42:33;;;;;;;34.28;27.15;;;;;;;21.22;80.19;100907.31;5031413;28;20039;-70
2022/08/17 06:45:05;;;;;;;29.17;25.95;;;;;;;21.19;80.79;100910.16;5010546;28;20041;-70
2022/08/17 06:47:40;;;;;;;29.15;26.15;;;;;;;21.22;80.40;100917.91;5010831;28;20042;-70
2022/08/17 06:50:25;;;;;;;27.25;24.35;;;;;;;21.20;79.95;100919.81;5025569;28;20033;-70
2022/08/17 06:53:12;;;;;;;27.33;24.40;;;;;;;21.18;79.80;100920.84;5032369;28;20029;-72
2022/08/17 06:55:47;;;;;;;29.23;24.60;;;;;;;21.18;80.07;100927.00;5017013;28;20575;-73
2022/08/17 06:58:19;;;;;;;25.88;23.38;;;;;;;21.18;80.07;100927.00;5016644;28;20034;-73
2022/08/17 07:00:47;;;;;;;28.33;23.88;;;;;;;21.21;79.84;100920.66;5023460;28;20039;-72
2022/08/17 07:03:36;;;;;;;28.42;23.02;;;;;;;21.27;79.28;100929.03;5031003;28;20025;-73
2022/08/17 07:06:20;;;;;;;24.88;22.38;;;;;;;21.33;78.92;100937.53;5020303;28;20026;-72
2022/08/17 07:08:54;;;;;;;24.95;22.27;;;;;;;21.40;78.28;100938.84;5031537;28;20017;-72
2022/08/17 07:11:39;;;;;;;25.23;21.83;;;;;;;21.53;78.50;100942.38;5031591;28;20045;-72
2022/08/17 07:14:28;;;;;;;24.52;22.00;;;;;;;21.64;77.98;100937.19;5027402;28;20072;-72
2022/08/17 07:16:56;;;;;;;24.80;21.80;;;;;;;21.73;76.85;100938.38;5012971;28;20466;-72
2022/08/17 07:19:26;;;;;;;24.27;20.98;;;;;;;21.79;76.08;100929.16;5019295;28;20072;-73
2022/08/17 07:22:14;;;;;;;23.05;20.60;;;;;;;21.81;76.13;100936.06;5025273;28;20484;-73
2022/08/17 07:24:56;;;;;;;26.05;22.23;;;;;;;21.78;75.73;100938.91;5014603;28;20033;-72
2022/08/17 07:27:29;;;;;;;23.88;20.58;;;;;;;21.78;76.83;100938.03;5025273;28;20037;-72
2022/08/17 07:30:04;;;;;;;23.73;18.80;;;;;;;21.79;76.90;100932.63;5022509;28;20022;-72
2022/08/17 07:32:56;;;;;;;24.67;21.67;;;;;;;21.80;76.10;100936.97;5011785;28;20030;-72
2022/08/17 07:35:27;;;;;;;22.27;20.02;;;;;;;21.77;76.75;100937.19;5017312;28;20030;-72
2022/08/17 07:38:11;;;;;;;22.63;20.25;;;;;;;21.77;76.92;100949.63;5030760;28;20028;-72
2022/08/17 07:40:45;;;;;;;22.75;20.25;;;;;;;21.74;77.22;100959.50;5017628;28;20068;-73
2022/08/17 07:43:10;;;;;;;24.15;20.35;;;;;;;21.78;76.60;100962.78;5029734;28;20040;-72
2022/08/17 07:48:35;;;;;;;23.58;21.13;;;;;;;21.93;75.55;100960.88;5037644;28;20446;-73
2022/08/17 07:51:00;;;;;;;24.45;20.85;;;;;;;22.04;75.53;100958.34;5029860;28;20027;-73
2022/08/17 07:53:29;;;;;;;32.80;20.52;;;;;;;22.15;75.03;100961.13;5029963;28;20033;-72
2022/08/17 07:55:55;;;;;;;21.70;19.52;;;;;;;22.23;75.07;100954.41;5031370;28;20076;-72
2022/08/17 07:58:22;;;;;;;20.85;18.73;;;;;;;22.33;74.52;100958.09;5034325;28;20029;-73
2022/08/17 08:01:17;;;;;;;23.15;20.00;;;;;;;22.48;73.98;100962.34;5048075;28;20086;-72
2022/08/17 08:03:44;;;;;;;22.10;19.75;;;;;;;22.47;73.91;100954.50;5032306;28;20112;-72
2022/08/17 08:06:21;;;;;;;22.10;19.63;;;;;;;22.59;72.97;100961.56;5029677;28;20418;-72
2022/08/17 08:08:53;;;;;;;21.55;18.77;;;;;;;22.59;73.54;100956.25;5049257;28;20025;-72
2022/08/17 08:11:34;;;;;;;21.65;19.52;;;;;;;22.67;73.28;100960.06;5050682;28;20074;-72
2022/08/17 08:14:32;;;;;;;24.13;19.35;;;;;;;22.77;72.54;100962.06;5047684;28;20489;-72
2022/08/17 08:17:05;;;;;;;21.33;19.08;;;;;;;22.83;72.40;100959.78;5031380;28;20043;-72
2022/08/17 08:19:31;;;;;;;19.75;17.85;;;;;;;22.93;71.37;100961.78;5041656;28;20385;-72
2022/08/17 08:22:09;;;;;;;22.60;20.27;;;;;;;22.94;71.81;100959.03;5054765;28;20095;-72
2022/08/17 08:24:54;;;;;;;23.33;19.02;;;;;;;23.02;71.34;100959.31;5048961;28;20439;-72
2022/08/17 08:27:26;;;;;;;23.20;20.85;;;;;;;23.03;70.74;100952.19;5047110;28;20041;-72
2022/08/17 08:30:05;;;;;;;22.35;20.00;;;;;;;23.03;71.39;100937.09;5054772;28;20438;-72
2022/08/17 08:32:41;;;;;;;22.98;20.55;;;;;;;23.02;71.48;100939.84;5054391;28;20036;-72
2022/08/17 08:35:44;;;;;;;24.00;21.48;;;;;;;23.16;70.91;100938.84;5038079;28;20041;-72
2022/08/17 08:38:37;;;;;;;24.02;21.55;;;;;;;23.19;70.17;100943.94;5030978;28;20039;-72
2022/08/17 08:41:15;;;;;;;24.73;21.63;;;;;;;23.19;70.35;100943.94;5048662;28;20037;-73
2022/08/17 08:43:53;;;;;;;25.13;21.83;;;;;;;23.25;70.25;100946.97;5042697;28;20041;-72
2022/08/17 08:46:29;;;;;;;23.88;21.38;;;;;;;23.37;69.77;100966.47;5024989;28;20033;-72
2022/08/17 08:49:32;;;;;;;25.30;20.48;;;;;;;23.57;69.92;100986.25;5015526;28;20054;-72
2022/08/17 08:52:00;;;;;;;27.70;21.65;;;;;;;23.60;70.45;100986.00;5021007;28;20029;-72
2022/08/17 08:54:33;;;;;;;24.35;21.85;;;;;;;23.66;69.03;100993.53;5012981;28;20026;-72
2022/08/17 08:57:22;;;;;;;23.77;20.45;;;;;;;23.80;68.69;100984.53;5019213;28;20384;-73
2022/08/17 08:59:56;;;;;;;22.52;20.17;;;;;;;23.82;67.24;100963.97;5016226;28;20021;-73
2022/08/17 09:02:55;;;;;;;24.40;21.85;;;;;;;24.01;67.63;100987.34;5019468;28;20033;-73
2022/08/17 09:05:36;;;;;;;25.38;22.83;;;;;;;23.83;67.43;100976.31;5029993;28;20081;-72
2022/08/17 09:08:23;;;;;;;25.67;22.98;;;;;;;23.77;66.90;100974.09;5033271;28;20037;-72
2022/08/17 09:10:57;;;;;;;24.33;21.73;;;;;;;23.67;67.38;100975.75;5031277;28;20029;-73
2022/08/17 09:13:44;;;;;;;24.75;22.10;;;;;;;23.54;68.56;100979.38;5031854;28;20065;-72
2022/08/17 09:16:21;;;;;;;24.30;21.73;;;;;;;23.50;68.18;100983.19;5033099;28;20041;-72
2022/08/17 09:18:52;;;;;;;27.90;22.88;;;;;;;23.41;68.21;100980.38;5032348;28;20096;-72
2022/08/17 09:21:25;;;;;;;27.27;22.77;;;;;;;23.44;68.52;100977.50;5032964;28;20040;-73
2022/08/17 09:24:14;;;;;;;;;;;;;;;23.50;68.46;100988.53;5033424;28;20028;-72
2022/08/17 09:27:03;;;;;;;24.30;21.65;;;;;;;23.28;68.81;100994.63;5032060;28;20300;-72
2022/08/17 09:29:33;;;;;;;27.50;23.55;;;;;;;23.17;69.92;100991.06;5034148;28;20857;-73
2022/08/17 09:32:03;;;;;;;27.08;24.27;;;;;;;23.19;69.08;101008.59;5037309;28;20036;-72
2022/08/17 09:34:39;;;;;;;26.00;23.33;;;;;;;23.20;70.01;101012.09;5032757;28;20017;-72
2022/08/17 09:37:24;;;;;;;25.67;23.00;;;;;;;23.07;70.46;101030.75;5031175;28;20037;-72
2022/08/17 09:40:05;;;;;;;26.83;23.40;;;;;;;22.84;72.23;101045.69;5025306;28;20393;-72
2022/08/17 09:42:41;;;;;;;25.92;23.15;;;;;;;22.56;75.69;101057.41;5031755;28;20498;-72
2022/08/17 09:45:36;;;;;;;26.63;23.80;;;;;;;22.32;75.79;101070.63;5036900;28;20549;-72
2022/08/17 09:48:11;;;;;;;25.85;23.08;;;;;;;22.01;79.00;101085.09;5041932;28;20112;-72
2022/08/17 09:50:49;;;;;;;28.08;23.65;;;;;;;21.80;79.11;101092.69;5036534;28;20508;-72
2022/08/17 09:53:15;;;;;;;28.88;25.45;;;;;;;21.33;83.57;101092.19;5039264;28;20119;-71
2022/08/17 09:55:45;;;;;;;29.83;26.77;;;;;;;20.92;87.18;101087.72;5041692;28;20029;-72
2022/08/17 09:58:36;;;;;;;34.10;27.38;;;;;;;20.62;90.78;101069.28;5048658;28;20472;-72
2022/08/17 10:01:24;;;;;;;33.38;29.77;;;;;;;20.41;92.30;101060.00;5042834;28;20043;-72
2022/08/17 10:04:03;;;;;;;35.80;30.92;;;;;;;20.29;98.64;101059.78;5038020;28;20033;-72
2022/08/17 10:06:35;;;;;;;42.85;32.58;;;;;;;20.20;100.00;101059.50;5052101;28;20048;-73
2022/08/17 10:09:08;;;;;;;40.28;35.35;;;;;;;20.08;100.00;101064.59;5025403;28;20013;-73
2022/08/17 10:14:38;;;;;;;42.85;36.78;;;;;;;20.03;100.00;101066.66;5045659;28;20044;-73
2022/08/17 10:17:06;;;;;;;49.88;38.65;;;;;;;20.10;100.00;101051.25;5051294;28;20039;-73
2022/08/17 10:19:45;;;;;;;50.20;40.95;;;;;;;20.12;100.00;101052.03;5043957;28;20432;-74
2022/08/17 10:28:03;;;;;;;47.88;40.00;;;;;;;20.26;100.00;101049.38;5033902;28;20067;-75
2022/08/17 10:30:32;;;;;;;52.10;41.50;;;;;;;20.26;100.00;101057.31;5047745;28;20362;-75
2022/08/17 10:33:05;;;;;;;49.40;40.20;;;;;;;20.27;100.00;101059.03;5040161;28;20059;-75
2022/08/17 10:36:11;;;;;;;47.35;38.28;;;;;;;20.21;100.00;101055.88;5046138;28;20056;-75
2022/08/17 10:38:44;;;;;;;48.85;39.60;;;;;;;20.22;100.00;101053.16;4969586;28;20027;-76
2022/08/17 10:41:31;;;;;;;50.78;39.90;;;;;;;20.26;100.00;101054.66;5035736;28;20047;-75
2022/08/17 10:44:12;;;;;;;55.38;43.55;;;;;;;20.38;100.00;101031.06;5045854;28;20053;-75
2022/08/17 10:47:02;;;;;;;52.35;41.35;;;;;;;20.42;100.00;101038.72;5034519;28;20028;-75
2022/08/17 10:49:32;;;;;;;56.13;42.50;;;;;;;20.39;100.00;101027.47;5047392;28;20456;-75
2022/08/17 10:52:25;;;;;;;49.05;40.85;;;;;;;20.37;100.00;101018.75;5044028;28;20021;-75
2022/08/17 10:54:51;;;;;;;49.08;41.50;;;;;;;20.27;100.00;101010.50;5033962;28;20060;-75
2022/08/17 10:57:25;;;;;;;47.87;40.03;;;;;;;20.17;100.00;101010.22;5050846;28;20481;-75
2022/08/17 10:59:52;;;;;;;50.03;41.50;;;;;;;20.01;100.00;101007.69;5045775;28;20317;-75
2022/08/17 11:02:37;;;;;;;52.70;42.53;;;;;;;19.98;100.00;101013.16;5043901;28;20040;-74
2022/08/17 11:05:40;;;;;;;48.78;41.85;;;;;;;19.94;100.00;101013.41;5029405;28;20488;-74
2022/08/17 11:08:14;;;;;;;52.00;42.30;;;;;;;19.88;100.00;101014.63;5032359;28;20425;-75
2022/08/17 11:10:55;;;;;;;55.55;43.83;;;;;;;19.93;100.00;101014.38;5050981;28;20385;-75
2022/08/17 11:13:50;;;;;;;52.92;42.60;;;;;;;19.90;100.00;101018.03;5039097;28;20585;-74
2022/08/17 11:16:35;;;;;;;52.42;42.33;;;;;;;19.90;100.00;101030.44;5036000;28;20079;-74
2022/08/17 11:19:09;;;;;;;53.35;41.35;;;;;;;19.86;100.00;101027.97;5038189;28;20029;-74
2022/08/17 11:22:32;;;;;;;50.33;41.42;;;;;;;19.83;100.00;101036.06;5042375;28;20036;-75
2022/08/17 11:25:11;;;;;;;46.83;40.43;;;;;;;19.79;100.00;101044.28;4962698;28;20062;-75
2022/08/17 11:27:37;;;;;;;48.92;40.25;;;;;;;19.72;100.00;101045.56;4970209;28;20019;-74
2022/08/17 11:30:07;;;;;;;50.35;40.70;;;;;;;19.73;100.00;101058.72;5020852;28;20060;-74
2022/08/17 11:32:39;;;;;;;47.05;40.08;;;;;;;19.61;100.00;101064.69;5048823;28;20028;-74
2022/08/17 11:35:23;;;;;;;48.80;40.88;;;;;;;19.57;100.00;101071.09;5037970;28;20876;-74
2022/08/17 11:38:09;;;;;;;51.25;41.97;;;;;;;19.66;100.00;101070.59;5040535;28;20021;-74
2022/08/17 11:41:14;;;;;;;52.10;42.42;;;;;;;19.70;100.00;101076.56;5023368;28;20780;-74
2022/08/17 11:44:06;;;;;;;58.20;43.72;;;;;;;19.85;100.00;101081.81;5012198;28;20103;-75
2022/08/17 11:52:45;;;;;;;61.50;46.60;;;;;;;20.10;100.00;101091.78;5026590;28;20036;-75
2022/08/17 11:55:26;;;;;;;56.08;44.47;;;;;;;20.13;100.00;101100.50;5021141;28;20159;-75
2022/08/17 11:58:00;;;;;;;51.47;42.90;;;;;;;20.08;100.00;101101.63;5026857;28;20491;-76
2022/08/17 12:00:43;;;;;;;51.97;42.20;;;;;;;20.07;100.00;101104.34;5034490;28;20036;-76
2022/08/17 12:03:32;;;;;;;53.05;42.78;;;;;;;20.03;100.00;101102.84;5035065;28;20492;-75
2022/08/17 12:06:33;;;;;;;58.72;45.40;;;;;;;20.10;100.00;101105.03;5038799;28;20434;-75
2022/08/17 12:09:14;;;;;;;49.95;41.20;;;;;;;20.09;100.00;101105.13;5037470;28;20350;-75
2022/08/17 12:11:42;;;;;;;58.25;44.47;;;;;;;20.16;100.00;101105.63;5040222;28;20018;-75